Flight Track Log - Related Links

Times and Time Zones

All times are in EDT time to prevent confusion due to time zone crossing. See the JZA8909 flight status page for this flight to view local times or setup timezone preferences in your user account.

Time Position Orientation Groundspeed Altitude Reporting Facility
EDT Latitude Longitude Course Direction KTS MPH feet Rate Location/Type
Sun 05:27:15 AM 46.7367 -71.5066 94° East  Level FlightAware Approximate
Sun 05:28:15 AM 46.7034 -71.6066 76° East  Level FlightAware Approximate
Sun 05:29:32 AM 46.7333 -71.4333 244° Southwest 170 196 4,200  Level Montreal Center
Sun 05:30:32 AM 46.7167 -71.4833 286° West 170 196 7,000 2,850 Climbing Montreal Center
Sun 05:31:32 AM 46.7333 -71.5667 286° West 180 207 9,900 2,300 Climbing Montreal Center
Sun 05:32:32 AM 46.7500 -71.6500 270° West 200 230 11,600 1,950 Climbing Montreal Center
Sun 05:33:32 AM 46.7500 -71.7500 270° West 230 265 13,800 2,050 Climbing Montreal Center
Sun 05:34:32 AM 46.7500 -71.8500 284° West 240 276 15,700 1,950 Climbing Montreal Center
Sun 05:35:32 AM 46.7667 -71.9500 256° West 250 288 17,700 1,800 Climbing Montreal Center
Sun 05:36:32 AM 46.7500 -72.0500 244° Southwest 260 299 19,300 1,700 Climbing Montreal Center
Sun 05:37:32 AM 46.7167 -72.1500 244° Southwest 270 311 21,100 1,600 Climbing Montreal Center
Sun 05:38:32 AM 46.6833 -72.2500 244° Southwest 270 311 22,500 1,250 Climbing Montreal Center
Sun 05:39:32 AM 46.6500 -72.3500 244° Southwest 270 311 23,600 750 Climbing Montreal Center
Sun 05:40:32 AM 46.6167 -72.4500 244° Southwest 280 322 24,000 200 Climbing Montreal Center
Sun 05:41:32 AM 46.5833 -72.5500 247° West 290 334 24,000  Level Montreal Center
Sun 05:42:32 AM 46.5500 -72.6667 244° Southwest 290 334 24,000  Level Montreal Center
Sun 05:43:32 AM 46.5167 -72.7667 244° Southwest 280 322 24,000  Level Montreal Center
Sun 05:44:32 AM 46.4833 -72.8667 244° Southwest 270 311 24,000  Level Montreal Center
Sun 05:45:32 AM 46.4500 -72.9667 256° West 270 311 24,000  Level Montreal Center
Sun 05:46:32 AM 46.4333 -73.0667 244° Southwest 270 311 24,000  Level Montreal Center
Sun 05:47:32 AM 46.4000 -73.1667 244° Southwest 260 299 24,000  Level Montreal Center
Sun 05:48:32 AM 46.3667 -73.2667 244° Southwest 270 311 24,000  Level Montreal Center
Sun 05:49:32 AM 46.3333 -73.3667 244° Southwest 270 311 24,000  Level Montreal Center
Sun 05:50:32 AM 46.3000 -73.4667 244° Southwest 270 311 24,000  Level Montreal Center
Sun 05:51:32 AM 46.2667 -73.5667 244° Southwest 270 311 24,000  Level Montreal Center
Sun 05:52:32 AM 46.2333 -73.6667 244° Southwest 270 311 24,000  Level Montreal Center
Sun 05:53:32 AM 46.2000 -73.7667 270° West 270 311 24,000  Level Montreal Center
Sun 05:54:32 AM 46.2000 -73.8667 234° Southwest 270 311 24,000  Level Montreal Center
Sun 05:55:32 AM 46.1500 -73.9667 254° West 270 311 24,000  Level Montreal Center
Sun 05:56:32 AM 46.1333 -74.0500 234° Southwest 270 311 24,000  Level Montreal Center
Sun 05:57:32 AM 46.0833 -74.1500 257° West 270 311 24,000  Level Montreal Center
Sun 05:58:32 AM 46.0667 -74.2500 244° Southwest 270 311 24,000  Level Montreal Center
Sun 05:59:32 AM 46.0333 -74.3500 244° Southwest 270 311 24,000  Level Montreal Center
Sun 06:00:32 AM 46.0000 -74.4500 244° Southwest 270 311 24,000  Level Montreal Center
Sun 06:01:32 AM 45.9667 -74.5500 244° Southwest 260 299 24,000  Level Montreal Center
Sun 06:02:32 AM 45.9333 -74.6500 240° Southwest 260 299 24,000  Level Montreal Center
Sun 06:03:32 AM 45.9000 -74.7333 244° Southwest 270 311 24,000  Level Montreal Center
Sun 06:04:32 AM 45.8667 -74.8333 244° Southwest 280 322 24,000  Level Montreal Center
Sun 06:05:32 AM 45.8333 -74.9333 244° Southwest 280 322 24,000  Level Montreal Center
Sun 06:06:32 AM 45.8000 -75.0333 244° Southwest 270 311 24,000  Level Montreal Center
Sun 06:07:32 AM 45.7667 -75.1333 240° Southwest 270 311 24,000  Level Montreal Center
Sun 06:08:32 AM 45.7333 -75.2167 245° Southwest 280 322 24,000  Level Montreal Center
Sun 06:09:32 AM 45.7000 -75.3167 258° West 270 311 24,000  Level Montreal Center
Sun 06:10:32 AM 45.6833 -75.4333 245° Southwest 270 311 24,000  Level Montreal Center
Sun 06:11:32 AM 45.6500 -75.5333 245° Southwest 270 311 24,000  Level Montreal Center
Sun 06:12:32 AM 45.6167 -75.6333 245° Southwest 270 311 24,000  Level Montreal Center
Sun 06:13:32 AM 45.5833 -75.7333 240° Southwest 270 311 24,000  Level Montreal Center
Sun 06:14:32 AM 45.5500 -75.8167 245° Southwest 270 311 24,000  Level Montreal Center
Sun 06:15:32 AM 45.5167 -75.9167 245° Southwest 270 311 24,000  Level Montreal Center
Sun 06:16:32 AM 45.4833 -76.0167 235° Southwest 260 299 24,000  Level Montreal Center
Sun 06:17:32 AM 45.4500 -76.0833 245° Southwest 260 299 24,000  Level Montreal Center
Sun 06:18:32 AM 45.4167 -76.1833 235° Southwest 250 288 24,000  Level Montreal Center
Sun 06:19:32 AM 45.3667 -76.2833 240° Southwest 250 288 24,000  Level Montreal Center
Sun 06:20:32 AM 45.3333 -76.3667 240° Southwest 250 288 24,000  Level Montreal Center
Sun 06:21:32 AM 45.3000 -76.4500 240° Southwest 250 288 24,000  Level Montreal Center
Sun 06:22:32 AM 45.2667 -76.5333 245° Southwest 250 288 24,000  Level Montreal Center
Sun 06:23:32 AM 45.2333 -76.6333 235° Southwest 250 288 24,000  Level Montreal Center
Sun 06:24:32 AM 45.2000 -76.7000 245° Southwest 250 288 24,000  Level Montreal Center
Sun 06:25:32 AM 45.1667 -76.8000 235° Southwest 250 288 24,000  Level Montreal Center
Sun 06:26:32 AM 45.1333 -76.8667 245° Southwest 250 288 24,000  Level Montreal Center
Sun 06:27:32 AM 45.1000 -76.9667 245° Southwest 250 288 24,000  Level Montreal Center
Sun 06:28:32 AM 45.0667 -77.0667 241° Southwest 250 288 24,000  Level Montreal Center
Sun 06:29:32 AM 45.0333 -77.1500 235° Southwest 250 288 24,000  Level Montreal Center
Sun 06:30:32 AM 45.0000 -77.2167 245° Southwest 250 288 24,000  Level Montreal Center
Sun 06:31:32 AM 44.9667 -77.3167 235° Southwest 250 288 24,000  Level Montreal Center
Sun 06:32:32 AM 44.9333 -77.3833 245° Southwest 250 288 24,000  Level Montreal Center
Sun 06:33:32 AM 44.9000 -77.4833 241° Southwest 250 288 24,000  Level Montreal Center
Sun 06:34:32 AM 44.8667 -77.5667 241° Southwest 250 288 24,000  Level Montreal Center
Sun 06:35:32 AM 44.8333 -77.6500 241° Southwest 250 288 24,000  Level Montreal Center
Sun 06:36:32 AM 44.8000 -77.7333 235° Southwest 250 288 24,000  Level Montreal Center
Sun 06:37:32 AM 44.7500 -77.8333 241° Southwest 250 288 24,000  Level Montreal Center
Sun 06:38:32 AM 44.7167 -77.9167 241° Southwest 250 288 24,000  Level Montreal Center
Sun 06:39:32 AM 44.6833 -78.0000 241° Southwest 250 288 24,000  Level Montreal Center
Sun 06:40:32 AM 44.6500 -78.0833 245° Southwest 250 288 24,000  Level Montreal Center
Sun 06:41:32 AM 44.6167 -78.1833 241° Southwest 250 288 24,000  Level Montreal Center
Sun 06:42:32 AM 44.5833 -78.2667 235° Southwest 250 288 24,000  Level Montreal Center
Sun 06:43:32 AM 44.5500 -78.3333 245° Southwest 250 288 24,000 -250 Level Montreal Center
Sun 06:44:32 AM 44.5167 -78.4333 222° Southwest 260 299 23,500 -700 Descending Montreal Center
Sun 06:45:32 AM 44.4500 -78.5167 245° Southwest 280 322 22,600 -1,000 Descending Montreal Center
Sun 06:46:32 AM 44.4167 -78.6167 248° West 280 322 21,500 -1,300 Descending Montreal Center
Sun 06:47:32 AM 44.3833 -78.7333 235° Southwest 280 322 20,000 -1,500 Descending Montreal Center
Sun 06:48:32 AM 44.3500 -78.8000 239° Southwest 280 322 18,500 -1,500 Descending Montreal Center
Sun 06:49:32 AM 44.3000 -78.9167 241° Southwest 290 334 17,000 -1,600 Descending Montreal Center
Sun 06:50:32 AM 44.2667 -79.0000 245° Southwest 290 334 15,300 -1,800 Descending Montreal Center
Sun 06:51:32 AM 44.2333 -79.1000 208° Southwest 280 322 13,400 -2,017 Descending Montreal Center
Sun 06:52:31 AM 44.1667 -79.1500 224° Southwest 280 322 11,300 -1,966 Descending Toronto Center
Sun 06:53:31 AM 44.1167 -79.2167 208° Southwest 270 311 9,500 -1,600 Descending Toronto Center
Sun 06:54:31 AM 44.0500 -79.2667 208° Southwest 270 311 8,100 -1,300 Descending Toronto Center
Sun 06:55:31 AM 43.9833 -79.3167 190° South 270 311 6,900 -1,150 Descending Toronto Center
Sun 06:56:31 AM 43.9167 -79.3333 216° Southwest 240 276 5,800 -1,150 Descending Toronto Center
Sun 06:57:31 AM 43.8667 -79.3833 190° South 230 265 4,600 -900 Descending Toronto Center
Sun 06:58:31 AM 43.8000 -79.4000 216° Southwest 220 253 4,000 -800 Descending Toronto Center
Sun 06:59:31 AM 43.7667 -79.4333 235° Southwest 190 219 3,000 -800 Descending Toronto Center
Sun 07:00:31 AM 43.7333 -79.5000 216° Southwest 170 196 2,400 -700 Descending Toronto Center
Sun 07:01:31 AM 43.7000 -79.5333 216° Southwest 160 184 1,600 -850 Descending Toronto Center
Sun 07:02:31 AM 43.6667 -79.5667 216° Southwest 140 161 700 -900 Descending Toronto Center

Login

Don't have an account? Register now (free) for customized features, flight alerts, and more!